Nationale Nord-Ouest - Longue Distance Cercottes (45) - H

Date : 07/04/2019
Distance : 4,000 km

Place Nom Licence Catégorie Club Temps min/km CN à J-60 Points Différence Nouveau CN
1 PREVOST Pascale 922 D60 7707IF 0:27:38 6'54 5440 5589 +149 5389
2 DARTHIAIL Jean-Paul 3254 H70 3308NA 0:30:54 7'43 4913 4998 +85 4954
3 LE ROUX Jacques 2857 H70 3502BR 0:32:00 8'00 4463 4826 +363 4338
4 HAMON Patrick 2146 H70 7716IF 0:32:27 8'06 4446 4760 +314 4578
5 SOL Michel 933 H70 7707IF 0:34:04 8'31 4315 4534 +219 4310
6 PERICHON Bernard 1993 H70 7707IF 0:35:08 8'47 4590 4396 -194 4418
7 CABON Herve 95 H70 2904BR 0:36:13 9'03 4648 4265 -383 4544
8 HUMBERTCLAUDE J-Paul 16205 H70 5909HF 0:36:19 9'04 4120 4253 +133 4039
9 VUILLET Christian 2712 H70 2105BF 0:36:31 9'07 4473 4230 -243 4474
10 DUBROCA Monique 633 D70 3308NA 0:36:52 9'13 4192 4189 -3 4207
11 PETIT Guyonne 4372 D65 7808IF 0:38:40 9'40 4190 3994 -196 4168
12 LE ROUX Anne-Francoise 7409 D60 3318NA 0:39:12 9'48 4266 3940 -326 4219
13 BOULANGER Isabelle 10639 D60 5907HF 0:40:05 10'01 3695 3853 +158 3581
14 CAMPBELL Jane 17406 D60 7807IF 0:40:28 10'07 4288 3817 -471 4206
15 PECHSTEIN Alice 9619 D40 5402GE 0:40:44 10'11 3433 3792 +359 3518
16 DEVILLE Nelly 2401 D70 5402GE 0:40:53 10'13 3705 3778 +73 3937
17 ARROQUI Anne-sophie 23424 D45 5909HF 0:40:53 10'13 3485 3778 +293 3721
18 DUBROCA J-Michel 4507 H70 3308NA 0:41:19 10'19 3775 3738 -37 3799
19 BRET Dominique 5982 D60 7512IF 0:41:42 10'25 3267 3704 +437 3415
20 CHALOPIN Catherine 3674 D65 2105BF 0:43:00 10'45 3768 3592 -176 3816
21 GRAND J-Pierre 1053 H75 1601NA 0:43:09 10'47 3733 3579 -154 3596
22 TESSIER Daniel 2006 H70 7709IF 0:43:21 10'50 3808 3563 -245 3901
23 DECLERCQ Anne 36940 D60 8607NA 0:43:25 10'51 0 3557 2998
24 LEFRANÇOIS Gérard 1938 H70 9502IF 0:44:02 11'00 3003 3508 +505 3500
25 QUEYROI Henri 655 H75 3308NA 0:44:53 11'13 4198 3441 -757 4093
26 LANGLOIS Patricia 18147 D60 1799NA 0:44:53 11'13 3441 2989
27 SENCE Marie-Pierre 29897 D40 5906HF 0:45:42 11'25 3111 3380 +269 3274
28 LAMBERT Nadine 5607 D60 7203PL 0:47:35 11'53 2605 3246 +641 2904
29 VILLAME Uli 22384 D55 7719IF 0:48:25 12'06 2947 3190 +243 3136
30 BEAUVISAGE Fabienne 13740 D55 7807IF 0:49:28 12'22 2699 3122 +423 2910
31 CABON Monique 96 D65 2904BR 0:49:59 12'29 2863 3090 +227 2928
32 GUIGNARD Marie 11369 D60 8607NA 0:50:03 12'30 2919 3086 +167 2908
33 RICHARD Nicole 14245 D70 0207HF 0:50:13 12'33 3349 3076 -273 3220
34 MERIGUET Valérie 16687 D50 7807IF 0:50:31 12'37 3095 3057 -38 3089
35 THEVENON Catherine 29294 D65 1705NA 0:50:37 12'39 2631 3051 +420 2777
36 BEGU Aurore 9042 D45 0111AR 0:51:00 12'45 3154 3028 -126 3114
37 VANNIER Bernard 2119 H70 7709IF 0:51:03 12'45 4561 3025 -1536 4561
38 DOMENICI J-Claude 1052 H80 1705NA 0:51:34 12'53 3273 2995 -278 3273
39 RABALLARD Emmanuelle 22062 D50 1601NA 0:53:14 13'18 2376 2901 +525 2216
40 TESSIER Ariane 2004 D65 7709IF 0:53:40 13'25 2929 2878 -51 2770
41 COUPEY Guy 5118 H75 2704NM 0:55:52 13'58 2834 2765 -69 2807
42 FRANTZ Francoise 6886 D70 2904BR 0:57:29 14'22 3102 2687 -415 3059
43 JEQUEL Yann 3086 H70 4403PL 0:57:36 14'24 3180 2681 -499 3074
44 PAPILLON Françoise 2761 D60 2109BF 0:58:39 14'39 3015 2633 -382 2952
45 SOULAINE Chantal 37202 D40 2904BR 0:58:54 14'43 0 2622 2348
46 DUBOIS Sylvie 14002 D60 7709IF 0:59:49 14'57 1595 2582 +987 1987
47 BAUDRY J-Claude 1693 H75 1705NA 1:01:00 15'15 2139 2532 +393 2179
48 BEN KHALED Isabelle 13761 D60 5906HF 1:01:15 15'18 2358 2522 +164 2409
49 COLLETER J-Claude 1264 H80 8607NA 1:03:20 15'50 2553 2439 -114 2652
50 DENIS Martine 12377 D70 9404IF 1:05:39 16'24 2400 2353 -47 2406
51 CORNAILLE Céline 25411 D50 4010NA 1:06:06 16'31 2188 2337 +149 2225
52 DRAULT J-Raymond 4234 H75 8702NA 1:06:11 16'32 2611 2334 -277 2626
53 LUDEWIG-JAMES Carol 15894 D80 5907HF 1:39:29 24'52 1636 1552 -84 1653
54 QUEYROI Yvette 14021 D55 3308NA 1:52:03 28'00 1575 1378 -197 1464
BASTIEN-FATH Nicole 8954 D70 5402GE pm None 1837 0 1919